createdAt,value
2023-04-26T00:02:18.814Z,1.00
2023-04-26T00:04:56.715Z,1.00
2023-04-26T00:07:27.041Z,1.00
2023-04-26T00:09:57.054Z,0.90
2023-04-26T00:12:29.440Z,1.10
2023-04-26T00:14:59.271Z,0.90
2023-04-26T00:17:45.090Z,1.30
2023-04-26T00:20:15.077Z,1.10
2023-04-26T00:22:45.923Z,1.00
2023-04-26T00:25:24.144Z,1.00
2023-04-26T00:27:54.952Z,1.10
2023-04-26T00:30:24.527Z,1.00
2023-04-26T00:32:55.573Z,1.10
2023-04-26T00:35:25.004Z,1.30
2023-04-26T00:37:54.317Z,1.20
2023-04-26T00:40:24.915Z,1.30
2023-04-26T00:42:59.003Z,1.30
2023-04-26T00:45:29.266Z,1.50
2023-04-26T00:48:01.688Z,1.00
2023-04-26T00:50:32.755Z,1.30
2023-04-26T00:53:04.404Z,1.40
2023-04-26T00:55:35.438Z,1.20
2023-04-26T00:58:04.873Z,1.40
2023-04-26T01:00:34.496Z,1.70
2023-04-26T01:03:04.295Z,1.60
2023-04-26T01:05:33.593Z,1.50
2023-04-26T01:08:05.236Z,1.60
2023-04-26T01:10:36.282Z,1.60
2023-04-26T01:13:06.135Z,2.00
2023-04-26T01:15:36.484Z,1.60
2023-04-26T01:18:06.250Z,1.70
2023-04-26T01:20:35.964Z,1.50
2023-04-26T01:23:05.299Z,1.80
2023-04-26T01:25:35.080Z,1.40
2023-04-26T01:28:04.566Z,2.00
2023-04-26T01:30:34.022Z,1.90
2023-04-26T01:33:06.885Z,1.90
2023-04-26T01:35:37.613Z,2.00
2023-04-26T01:38:07.102Z,2.40
2023-04-26T01:40:36.757Z,2.00
2023-04-26T01:45:38.526Z,1.90
2023-04-26T01:48:26.761Z,1.80
2023-04-26T01:50:56.594Z,2.10
2023-04-26T01:53:25.782Z,2.00
2023-04-26T01:55:56.399Z,2.30
2023-04-26T01:58:26.720Z,3.00
2023-04-26T02:00:57.639Z,2.80
2023-04-26T02:03:27.552Z,2.90
2023-04-26T02:05:58.612Z,2.50
2023-04-26T02:08:28.921Z,2.50
2023-04-26T02:10:58.886Z,2.30
2023-04-26T02:13:28.880Z,2.30
2023-04-26T02:16:00.250Z,2.50
2023-04-26T02:18:30.448Z,2.70
2023-04-26T02:21:00.301Z,1.80
2023-04-26T02:23:30.282Z,2.80
2023-04-26T02:26:00.047Z,3.20
2023-04-26T02:28:30.108Z,2.50
2023-04-26T02:30:59.893Z,2.70
2023-04-26T02:33:29.545Z,2.60
2023-04-26T02:36:02.854Z,2.90
2023-04-26T02:38:36.833Z,3.30
2023-04-26T02:41:07.250Z,2.90
2023-04-26T02:43:38.736Z,3.30
2023-04-26T02:46:08.567Z,3.20
2023-04-26T02:48:37.813Z,2.90
2023-04-26T02:51:07.736Z,3.00
2023-04-26T02:53:37.401Z,3.40
2023-04-26T02:56:07.697Z,3.00
2023-04-26T02:58:43.626Z,2.40
2023-04-26T03:01:15.216Z,3.40
2023-04-26T03:03:45.229Z,3.70
2023-04-26T03:06:15.411Z,3.50
2023-04-26T03:08:49.187Z,3.40
2023-04-26T03:11:20.330Z,3.40
2023-04-26T03:13:49.810Z,3.20
2023-04-26T03:16:24.334Z,3.80
2023-04-26T03:18:55.526Z,3.60
2023-04-26T03:21:25.085Z,3.40
2023-04-26T03:23:54.975Z,3.90
2023-04-26T03:26:25.784Z,3.00
2023-04-26T03:28:56.015Z,4.20
2023-04-26T03:31:25.575Z,3.80
2023-04-26T03:33:54.499Z,4.30
2023-04-26T03:36:24.553Z,3.10
2023-04-26T03:38:56.767Z,3.70
2023-04-26T03:41:26.817Z,3.40
2023-04-26T03:43:57.198Z,3.70
2023-04-26T03:46:26.825Z,4.20
2023-04-26T03:48:57.347Z,3.70
2023-04-26T03:51:28.815Z,3.70
2023-04-26T03:54:00.849Z,3.60
2023-04-26T03:56:32.597Z,4.50
2023-04-26T03:59:04.445Z,4.00
2023-04-26T04:01:34.019Z,4.40
2023-04-26T04:04:03.918Z,4.30
2023-04-26T04:06:33.441Z,4.30
2023-04-26T04:09:06.512Z,4.10
2023-04-26T04:11:39.426Z,4.20
2023-04-26T04:14:11.613Z,4.10
2023-04-26T04:16:41.526Z,3.60
2023-04-26T04:19:11.251Z,3.80
2023-04-26T04:21:43.281Z,3.80
2023-04-26T04:24:13.612Z,4.40
2023-04-26T04:26:42.859Z,4.00
2023-04-26T04:29:12.970Z,4.10
2023-04-26T04:31:42.943Z,4.90
2023-04-26T04:34:12.371Z,4.90
2023-04-26T04:36:46.675Z,4.10
2023-04-26T04:39:17.732Z,4.90
2023-04-26T04:41:49.227Z,5.10
2023-04-26T04:44:21.219Z,4.60
2023-04-26T04:46:50.771Z,4.70
2023-04-26T04:49:21.292Z,4.60
2023-04-26T04:51:51.790Z,4.70
2023-04-26T04:54:21.356Z,3.40
2023-04-26T04:56:51.631Z,4.20
2023-04-26T04:59:21.940Z,4.20
2023-04-26T05:01:52.216Z,3.70
2023-04-26T05:04:21.845Z,4.00
2023-04-26T05:06:52.793Z,4.20
2023-04-26T05:09:21.933Z,3.90
2023-04-26T05:11:52.996Z,2.40
2023-04-26T05:14:22.893Z,4.10
2023-04-26T05:16:52.479Z,2.90
2023-04-26T05:19:21.994Z,3.10
2023-04-26T05:21:53.692Z,3.10
2023-04-26T05:24:26.601Z,3.30
2023-04-26T05:26:55.550Z,3.00
2023-04-26T05:29:46.287Z,3.50
2023-04-26T05:32:47.925Z,3.30
2023-04-26T05:35:29.164Z,2.90
2023-04-26T05:37:58.642Z,4.00
2023-04-26T05:40:28.658Z,3.70
2023-04-26T05:42:59.789Z,4.40
2023-04-26T05:45:31.790Z,4.20
2023-04-26T05:48:02.554Z,4.80
2023-04-26T05:50:32.358Z,4.10
2023-04-26T05:53:01.929Z,3.80
2023-04-26T05:55:31.904Z,3.40
2023-04-26T05:58:01.570Z,4.00
2023-04-26T06:00:31.333Z,3.00
2023-04-26T06:03:02.327Z,4.10
2023-04-26T06:05:33.845Z,3.90
2023-04-26T06:08:03.512Z,3.90
2023-04-26T06:10:33.569Z,4.90
2023-04-26T06:13:04.745Z,5.10
2023-04-26T06:15:36.454Z,4.80
2023-04-26T06:18:07.506Z,4.30
2023-04-26T06:20:37.704Z,3.80
2023-04-26T06:23:09.834Z,5.60
2023-04-26T06:25:45.428Z,4.50
2023-04-26T06:28:15.872Z,5.60
2023-04-26T06:30:45.448Z,5.50
2023-04-26T06:33:16.131Z,5.90
2023-04-26T06:35:45.407Z,5.90
2023-04-26T06:38:17.689Z,5.30
2023-04-26T06:40:49.176Z,4.90
2023-04-26T06:43:19.933Z,6.70
2023-04-26T06:46:02.819Z,4.40
2023-04-26T06:48:34.119Z,4.80
2023-04-26T06:51:08.223Z,5.40
2023-04-26T06:56:10.195Z,5.80
2023-04-26T06:58:40.721Z,5.10
2023-04-26T07:01:11.609Z,6.30
2023-04-26T07:03:43.096Z,5.80
2023-04-26T07:06:12.767Z,7.40
2023-04-26T07:08:42.258Z,5.10
2023-04-26T07:11:13.868Z,6.40
2023-04-26T07:13:43.398Z,8.90
2023-04-26T07:16:14.447Z,7.50
2023-04-26T07:18:43.448Z,6.00
2023-04-26T07:21:14.418Z,6.60
2023-04-26T07:23:43.657Z,6.40
2023-04-26T07:26:13.617Z,7.20
2023-04-26T07:28:43.036Z,6.90
2023-04-26T07:31:13.092Z,7.70
2023-04-26T07:33:44.398Z,7.30
2023-04-26T07:36:14.319Z,7.80
2023-04-26T07:38:44.013Z,7.40
2023-04-26T07:41:13.435Z,7.20
2023-04-26T07:43:43.944Z,7.50
2023-04-26T07:46:14.431Z,6.90
2023-04-26T07:48:45.214Z,8.80
2023-04-26T07:51:14.676Z,7.20
2023-04-26T07:53:44.183Z,8.40
2023-04-26T07:56:14.229Z,7.20
2023-04-26T07:58:46.305Z,6.40
2023-04-26T08:01:16.897Z,7.70
2023-04-26T08:03:52.631Z,8.00
2023-04-26T08:06:29.845Z,7.70
2023-04-26T08:08:59.646Z,8.80
2023-04-26T08:11:29.777Z,9.00
2023-04-26T08:14:00.668Z,9.50
2023-04-26T08:16:31.499Z,8.70
2023-04-26T08:19:03.758Z,8.50
2023-04-26T08:21:33.368Z,9.60
2023-04-26T08:24:04.249Z,6.30
2023-04-26T08:26:36.652Z,9.00
2023-04-26T08:29:08.110Z,7.90
2023-04-26T08:31:38.328Z,8.20
2023-04-26T08:34:14.022Z,7.40
2023-04-26T08:36:47.370Z,7.30
2023-04-26T08:39:20.262Z,7.70
2023-04-26T08:41:58.043Z,9.20
2023-04-26T08:44:29.680Z,7.90
2023-04-26T08:47:06.382Z,9.20
2023-04-26T08:49:42.571Z,8.50
2023-04-26T08:52:17.586Z,8.90
2023-04-26T08:54:47.678Z,8.90
2023-04-26T08:57:17.073Z,7.20
2023-04-26T08:59:48.157Z,8.80
2023-04-26T09:02:21.358Z,7.10
2023-04-26T09:04:52.827Z,9.20
2023-04-26T09:09:58.133Z,8.40
2023-04-26T09:12:28.468Z,8.00
2023-04-26T09:14:58.633Z,8.20
2023-04-26T09:17:39.465Z,7.60
2023-04-26T09:20:19.299Z,7.10
2023-04-26T09:22:52.286Z,9.30
2023-04-26T09:25:30.553Z,6.90
2023-04-26T09:28:02.331Z,8.60
2023-04-26T09:30:42.228Z,8.60
2023-04-26T09:33:11.963Z,7.00
2023-04-26T09:35:45.015Z,7.50
2023-04-26T09:38:18.859Z,7.80
2023-04-26T09:40:51.724Z,7.70
2023-04-26T09:43:22.530Z,6.90
2023-04-26T09:45:55.983Z,7.20
2023-04-26T09:48:34.880Z,7.40
2023-04-26T09:51:14.495Z,8.00
2023-04-26T09:53:51.407Z,6.60
2023-04-26T09:56:22.381Z,6.20
2023-04-26T09:59:01.869Z,6.60
2023-04-26T10:01:31.748Z,5.70
2023-04-26T10:04:05.276Z,5.90
2023-04-26T10:06:37.363Z,7.50
2023-04-26T10:09:09.926Z,6.60
2023-04-26T10:11:40.460Z,5.30
2023-04-26T10:14:10.459Z,7.70
2023-04-26T10:16:42.543Z,7.20
2023-04-26T10:21:50.462Z,6.10
2023-04-26T10:24:21.073Z,6.50
2023-04-26T10:26:53.943Z,5.60
2023-04-26T10:29:26.394Z,6.10
2023-04-26T10:32:02.158Z,5.40
2023-04-26T10:34:35.291Z,5.10
2023-04-26T10:39:43.653Z,6.50
2023-04-26T10:42:28.280Z,6.00
2023-04-26T10:44:59.562Z,5.80
2023-04-26T10:47:29.967Z,4.40
2023-04-26T10:50:06.414Z,4.80
2023-04-26T10:52:39.843Z,3.30
2023-04-26T10:55:10.813Z,4.20
2023-04-26T10:57:54.536Z,4.20
2023-04-26T11:00:32.384Z,4.10
2023-04-26T11:03:12.179Z,4.70
2023-04-26T11:06:10.308Z,4.90
2023-04-26T11:08:39.375Z,2.60
2023-04-26T11:11:14.171Z,4.20
2023-04-26T11:13:44.494Z,4.70
2023-04-26T11:16:16.357Z,4.30
2023-04-26T11:18:55.270Z,4.50
2023-04-26T11:21:27.281Z,4.20
2023-04-26T11:23:56.872Z,4.30
2023-04-26T11:26:38.014Z,4.40
2023-04-26T11:29:13.840Z,4.40
2023-04-26T11:31:43.340Z,4.30
2023-04-26T11:34:14.712Z,3.70
2023-04-26T11:36:47.078Z,3.80
2023-04-26T11:39:21.012Z,3.80
2023-04-26T11:41:51.113Z,4.30
2023-04-26T11:44:21.267Z,4.10
2023-04-26T11:46:51.929Z,3.90
2023-04-26T11:49:21.939Z,4.30
2023-04-26T11:51:51.714Z,4.40
2023-04-26T11:54:35.447Z,4.50
2023-04-26T11:57:18.638Z,3.60
2023-04-26T11:59:50.888Z,4.10
2023-04-26T12:02:24.830Z,4.10
2023-04-26T12:05:01.751Z,4.10
2023-04-26T12:07:41.039Z,3.70
2023-04-26T12:10:16.903Z,4.50
2023-04-26T12:12:51.479Z,4.20
2023-04-26T12:15:25.131Z,3.20
2023-04-26T12:18:13.240Z,3.60
2023-04-26T12:20:44.760Z,3.90
2023-04-26T12:23:18.281Z,4.50
2023-04-26T12:25:57.595Z,3.60
2023-04-26T12:28:27.013Z,4.20
2023-04-26T12:30:58.059Z,2.90
2023-04-26T12:33:48.596Z,4.40
2023-04-26T12:36:19.049Z,4.10
2023-04-26T12:38:48.135Z,3.90
2023-04-26T12:41:17.945Z,3.90
2023-04-26T12:43:48.480Z,2.30
2023-04-26T12:46:18.622Z,4.00
2023-04-26T12:48:47.857Z,3.70
2023-04-26T12:51:17.168Z,4.10
2023-04-26T12:53:47.016Z,3.50
2023-04-26T12:56:17.954Z,3.60
2023-04-26T12:58:48.981Z,3.50
2023-04-26T13:01:18.789Z,3.30
2023-04-26T13:03:49.571Z,3.90
2023-04-26T13:06:19.399Z,3.10
2023-04-26T13:08:49.842Z,3.20
2023-04-26T13:11:18.906Z,3.50
2023-04-26T13:13:53.580Z,3.50
2023-04-26T13:16:23.056Z,3.10
2023-04-26T13:18:52.608Z,3.70
2023-04-26T13:21:23.004Z,4.00
2023-04-26T13:23:52.218Z,3.50
2023-04-26T13:26:27.531Z,3.40
2023-04-26T13:28:57.371Z,3.40
2023-04-26T13:31:27.465Z,3.30
2023-04-26T13:33:57.379Z,3.50
2023-04-26T13:36:30.542Z,4.00
2023-04-26T13:38:59.909Z,3.90
2023-04-26T13:41:34.970Z,4.20
2023-04-26T13:44:06.108Z,2.90
2023-04-26T13:46:35.787Z,3.60
2023-04-26T13:49:05.896Z,3.60
2023-04-26T13:51:36.454Z,3.40
2023-04-26T13:54:08.662Z,3.80
2023-04-26T13:56:39.664Z,3.30
2023-04-26T13:59:09.746Z,3.70
2023-04-26T14:01:41.118Z,3.90
2023-04-26T14:04:13.218Z,3.30
2023-04-26T14:06:43.467Z,3.40
2023-04-26T14:09:12.416Z,3.30
2023-04-26T14:11:41.481Z,3.30
2023-04-26T14:14:11.695Z,3.00
2023-04-26T14:16:44.513Z,2.40
2023-04-26T14:21:45.071Z,3.10
2023-04-26T14:24:15.896Z,3.50
2023-04-26T14:26:46.343Z,3.40
2023-04-26T14:29:16.134Z,2.80
2023-04-26T14:31:46.635Z,2.70
2023-04-26T14:34:15.785Z,3.10
2023-04-26T14:36:45.212Z,3.20
2023-04-26T14:39:16.743Z,3.40
2023-04-26T14:41:47.057Z,3.10
2023-04-26T14:44:18.604Z,2.80
2023-04-26T14:46:47.886Z,2.50
2023-04-26T14:49:18.040Z,3.00
2023-04-26T14:51:47.579Z,3.20
2023-04-26T14:54:18.058Z,2.50
2023-04-26T14:56:47.437Z,3.00
2023-04-26T14:59:20.861Z,3.20
2023-04-26T15:01:55.140Z,2.90
2023-04-26T15:04:27.303Z,2.90
2023-04-26T15:06:57.895Z,2.40
2023-04-26T15:09:29.707Z,3.00
2023-04-26T15:12:00.178Z,3.50
2023-04-26T15:14:30.595Z,2.90
2023-04-26T15:17:00.691Z,3.10
2023-04-26T15:19:30.695Z,3.20
2023-04-26T15:22:00.445Z,3.60
2023-04-26T15:24:37.925Z,3.40
2023-04-26T15:27:08.835Z,2.80
2023-04-26T15:29:38.668Z,2.60
2023-04-26T15:32:10.152Z,2.50
2023-04-26T15:34:44.299Z,3.10
2023-04-26T15:37:14.809Z,2.80
2023-04-26T15:39:46.106Z,2.80
2023-04-26T15:42:18.632Z,2.90
2023-04-26T15:44:49.370Z,2.90
2023-04-26T15:47:19.088Z,2.80
2023-04-26T15:49:48.552Z,2.80
2023-04-26T15:52:18.794Z,2.90
2023-04-26T15:54:48.297Z,2.70
2023-04-26T15:57:18.175Z,2.50
2023-04-26T15:59:47.621Z,2.50
2023-04-26T16:02:17.991Z,3.00
2023-04-26T16:04:49.949Z,1.80
2023-04-26T16:07:19.978Z,2.30
2023-04-26T16:09:49.426Z,2.70
2023-04-26T16:12:19.431Z,2.80
2023-04-26T16:14:52.431Z,2.40
2023-04-26T16:17:23.774Z,1.90
2023-04-26T16:19:53.390Z,2.40
2023-04-26T16:22:23.538Z,2.60
2023-04-26T16:24:55.365Z,3.20
2023-04-26T16:27:25.562Z,2.10
2023-04-26T16:29:55.297Z,2.40
2023-04-26T16:32:26.781Z,2.50
2023-04-26T16:34:56.088Z,2.70
2023-04-26T16:37:25.553Z,2.80
2023-04-26T16:39:57.119Z,2.30
2023-04-26T16:42:26.716Z,2.50
2023-04-26T16:44:56.541Z,2.30
2023-04-26T16:47:27.228Z,3.10
2023-04-26T16:49:57.769Z,3.00
2023-04-26T16:52:27.748Z,3.20
2023-04-26T16:54:58.658Z,3.00
2023-04-26T16:57:30.012Z,3.30
2023-04-26T17:00:02.924Z,3.40
2023-04-26T17:05:03.772Z,3.60
2023-04-26T17:07:33.547Z,4.80
2023-04-26T17:10:03.059Z,3.30
2023-04-26T17:12:33.079Z,3.70
2023-04-26T17:15:04.490Z,3.80
2023-04-26T17:17:35.570Z,3.30
2023-04-26T17:20:09.491Z,3.60
2023-04-26T17:22:41.790Z,2.70
2023-04-26T17:25:11.663Z,3.00
2023-04-26T17:27:40.772Z,3.10
2023-04-26T17:30:11.385Z,3.60
2023-04-26T17:32:41.644Z,3.30
2023-04-26T17:35:10.668Z,2.90
2023-04-26T17:37:46.874Z,3.60
2023-04-26T17:40:18.690Z,3.80
2023-04-26T17:42:48.839Z,3.90
2023-04-26T17:45:17.988Z,4.10
2023-04-26T17:47:48.147Z,4.50
2023-04-26T17:50:18.270Z,3.80
2023-04-26T17:52:48.704Z,3.40
2023-04-26T17:55:17.991Z,4.10
2023-04-26T17:57:48.836Z,3.80
2023-04-26T18:00:19.627Z,4.00
2023-04-26T18:02:49.851Z,4.30
2023-04-26T18:05:19.310Z,4.10
2023-04-26T18:07:48.575Z,3.70
2023-04-26T18:10:18.173Z,3.50
2023-04-26T18:12:48.780Z,3.80
2023-04-26T18:15:17.903Z,4.00
2023-04-26T18:17:47.089Z,3.60
2023-04-26T18:20:16.825Z,3.80
2023-04-26T18:22:46.544Z,3.70
2023-04-26T18:25:15.844Z,3.90
2023-04-26T18:27:46.650Z,3.90
2023-04-26T18:30:18.816Z,7.10
2023-04-26T18:32:51.706Z,4.70
2023-04-26T18:35:22.392Z,3.90
2023-04-26T18:37:52.102Z,3.90
2023-04-26T18:40:22.045Z,4.50
2023-04-26T18:42:52.576Z,4.40
2023-04-26T18:45:22.150Z,5.00
2023-04-26T18:47:54.672Z,4.60
2023-04-26T18:50:27.618Z,5.00
2023-04-26T18:52:58.012Z,4.70
2023-04-26T18:55:27.822Z,5.00
2023-04-26T18:57:58.164Z,4.40
2023-04-26T19:00:30.436Z,4.00
2023-04-26T19:02:59.932Z,4.80
2023-04-26T19:05:29.625Z,4.90
2023-04-26T19:07:59.342Z,4.60
2023-04-26T19:10:29.353Z,5.20
2023-04-26T19:13:02.815Z,6.00
2023-04-26T19:15:32.390Z,5.70
2023-04-26T19:18:01.882Z,6.90
2023-04-26T19:20:31.963Z,6.50
2023-04-26T19:23:01.963Z,5.80
2023-04-26T19:25:32.419Z,5.70
2023-04-26T19:28:02.657Z,6.20
2023-04-26T19:30:32.322Z,6.10
2023-04-26T19:33:02.101Z,5.60
2023-04-26T19:35:31.964Z,5.50
2023-04-26T19:38:05.453Z,5.50
2023-04-26T19:40:35.559Z,6.10
2023-04-26T19:43:05.524Z,6.80
2023-04-26T19:45:35.047Z,6.90
2023-04-26T19:48:09.284Z,6.10
2023-04-26T19:50:43.037Z,6.40
2023-04-26T19:53:14.457Z,6.80
2023-04-26T19:55:44.323Z,6.50
2023-04-26T19:58:13.910Z,6.80
2023-04-26T20:00:44.051Z,7.00
2023-04-26T20:03:13.019Z,7.30
2023-04-26T20:05:43.171Z,6.90
2023-04-26T20:08:13.126Z,7.20
2023-04-26T20:10:42.636Z,6.70
2023-04-26T20:13:12.211Z,6.40
2023-04-26T20:15:42.141Z,6.00
2023-04-26T20:18:12.224Z,7.20
2023-04-26T20:20:42.461Z,7.00
2023-04-26T20:23:13.087Z,6.30
2023-04-26T20:25:43.146Z,7.10
2023-04-26T20:28:13.268Z,6.80
2023-04-26T20:30:43.323Z,6.40
2023-04-26T20:33:12.713Z,6.40
2023-04-26T20:35:43.026Z,7.30
2023-04-26T20:38:13.108Z,7.30
2023-04-26T20:40:42.748Z,7.20
2023-04-26T20:43:12.582Z,7.70
2023-04-26T20:45:42.923Z,7.60
2023-04-26T20:48:13.502Z,6.90
2023-04-26T20:50:43.387Z,7.50
2023-04-26T20:53:14.100Z,7.50
2023-04-26T20:55:43.417Z,7.50
2023-04-26T20:58:13.018Z,7.00
2023-04-26T21:00:51.855Z,6.90
2023-04-26T21:03:21.957Z,7.00
2023-04-26T21:05:51.884Z,7.20
2023-04-26T21:08:21.652Z,6.60
2023-04-26T21:10:51.514Z,5.90
2023-04-26T21:13:22.926Z,6.80
2023-04-26T21:15:52.632Z,6.20
2023-04-26T21:18:22.803Z,6.60
2023-04-26T21:20:52.810Z,6.10
2023-04-26T21:23:22.268Z,7.60
2023-04-26T21:25:51.812Z,7.00
2023-04-26T21:28:21.529Z,6.70
2023-04-26T21:31:05.267Z,6.30
2023-04-26T21:33:36.677Z,6.40
2023-04-26T21:36:07.211Z,6.80
2023-04-26T21:38:37.686Z,7.00
2023-04-26T21:41:08.312Z,6.90
2023-04-26T21:43:38.079Z,6.70
2023-04-26T21:46:08.389Z,7.20
2023-04-26T21:48:39.781Z,5.90
2023-04-26T21:51:09.349Z,6.20
2023-04-26T21:53:39.905Z,6.00
2023-04-26T21:56:10.578Z,7.00
2023-04-26T21:58:39.937Z,6.80
2023-04-26T22:01:12.777Z,6.60
2023-04-26T22:03:43.252Z,6.40
2023-04-26T22:06:13.183Z,6.30
2023-04-26T22:08:43.198Z,5.60
2023-04-26T22:11:19.125Z,5.80
2023-04-26T22:13:48.469Z,5.40
2023-04-26T22:16:18.363Z,5.40
2023-04-26T22:18:47.773Z,5.50
2023-04-26T22:21:17.999Z,5.40
2023-04-26T22:23:47.754Z,4.20
2023-04-26T22:26:18.864Z,5.30
2023-04-26T22:28:49.031Z,4.30
2023-04-26T22:31:19.124Z,5.20
2023-04-26T22:33:49.431Z,5.30
2023-04-26T22:36:19.464Z,4.80
2023-04-26T22:38:48.915Z,4.40
2023-04-26T22:41:22.009Z,5.10
2023-04-26T22:43:53.340Z,4.90
2023-04-26T22:46:24.164Z,5.20
2023-04-26T22:48:53.833Z,5.20
2023-04-26T22:51:23.975Z,4.80
2023-04-26T22:53:53.664Z,4.80
2023-04-26T22:56:23.563Z,4.90
2023-04-26T22:58:53.304Z,4.50
2023-04-26T23:01:25.808Z,4.80
2023-04-26T23:03:56.004Z,4.60
2023-04-26T23:06:27.195Z,4.10
2023-04-26T23:08:58.131Z,4.00
2023-04-26T23:11:28.702Z,4.90
2023-04-26T23:14:01.407Z,4.00
2023-04-26T23:16:31.018Z,4.50
2023-04-26T23:19:01.077Z,4.50
2023-04-26T23:21:31.684Z,4.20
2023-04-26T23:24:01.682Z,4.80
2023-04-26T23:26:31.588Z,4.40
2023-04-26T23:29:02.050Z,4.10
2023-04-26T23:31:32.199Z,4.50
2023-04-26T23:34:02.550Z,4.30
2023-04-26T23:36:33.900Z,3.60
2023-04-26T23:39:04.694Z,4.00
2023-04-26T23:41:34.732Z,4.20
2023-04-26T23:44:04.175Z,4.60
2023-04-26T23:46:34.291Z,4.40
2023-04-26T23:49:03.770Z,3.70
2023-04-26T23:51:33.832Z,3.90
2023-04-26T23:54:03.916Z,4.50
2023-04-26T23:56:33.222Z,3.90
2023-04-26T23:59:04.025Z,4.10
